Time;durP1;ratioP1;P1;durP2;ratioP2;P2;SDS_P1;SDS_P2;PMS_P1;PMS_P2;Temp;Humidity;BMP_temperature;BMP_pressure;BME280_temperature;BME280_humidity;BME280_pressure;Samples;Min_cycle;Max_cycle;Signal;HPM_P1;HPM_P2
2023/06/11 00:02:15;;;;;;;14.48;9.10;;;;;;;;;;4978154;28;20535;-78
2023/06/11 00:04:45;;;;;;;12.18;8.65;;;;;;;;;;4978515;28;20038;-80
2023/06/11 00:07:10;;;;;;;11.60;8.32;;;;;;;;;;4978843;28;20034;-81
2023/06/11 00:09:36;;;;;;;11.63;9.25;;;;;;;;;;4979429;28;20603;-80
2023/06/11 00:12:01;;;;;;;13.63;9.20;;;;;;;;;;4979625;28;20477;-82
2023/06/11 00:14:26;;;;;;;11.73;8.98;;;;;;;;;;4977850;28;20054;-78
2023/06/11 00:16:52;;;;;;;11.07;9.10;;;;;;;;;;4978745;28;20042;-80
2023/06/11 00:19:19;;;;;;;12.40;10.02;;;;;;;;;;4977104;28;20042;-81
2023/06/11 00:21:45;;;;;;;13.90;9.70;;;;;;;;;;4978228;28;20031;-82
2023/06/11 00:24:14;;;;;;;13.25;9.45;;;;;;;;;;4977205;28;20121;-81
2023/06/11 00:26:41;;;;;;;11.70;9.15;;;;;;;;;;4978804;28;20413;-81
2023/06/11 00:29:07;;;;;;;12.45;9.40;;;;;;;;;;4976593;28;20039;-80
2023/06/11 00:31:32;;;;;;;14.13;9.82;;;;;;;;;;4976596;28;20047;-82
2023/06/11 00:34:02;;;;;;;11.85;9.60;;;;;;;;;;4978392;28;20625;-79
2023/06/11 00:36:27;;;;;;;13.15;9.73;;;;;;;;;;4992270;28;20186;-80
2023/06/11 00:38:53;;;;;;;12.75;9.93;;;;;;;;;;4977092;28;20023;-81
2023/06/11 00:41:20;;;;;;;14.45;9.82;;;;;;;;;;4976707;28;20126;-81
2023/06/11 00:43:46;;;;;;;15.30;9.65;;;;;;;;;;4977593;28;20118;-81
2023/06/11 00:46:11;;;;;;;15.63;10.45;;;;;;;;;;4974720;28;20113;-80
2023/06/11 00:48:40;;;;;;;14.35;10.00;;;;;;;;;;4976844;28;20462;-81
2023/06/11 00:51:06;;;;;;;18.05;10.98;;;;;;;;;;4972901;28;20389;-82
2023/06/11 00:53:31;;;;;;;13.80;10.38;;;;;;;;;;4977939;28;20091;-81
2023/06/11 00:55:56;;;;;;;18.25;11.35;;;;;;;;;;4978015;28;20118;-81
2023/06/11 00:58:22;;;;;;;17.13;10.07;;;;;;;;;;4977360;28;20039;-78
2023/06/11 01:00:51;;;;;;;12.15;9.43;;;;;;;;;;4975835;28;20034;-81
2023/06/11 01:03:22;;;;;;;12.18;9.23;;;;;;;;;;4973746;28;20042;-82
2023/06/11 01:06:01;;;;;;;15.60;9.88;;;;;;;;;;4975398;28;20027;-82
2023/06/11 01:08:29;;;;;;;12.32;9.30;;;;;;;;;;4975196;28;20191;-82
2023/06/11 01:11:01;;;;;;;12.82;9.23;;;;;;;;;;4977878;28;20046;-82
2023/06/11 01:13:29;;;;;;;11.68;9.60;;;;;;;;;;4974951;28;20038;-81
2023/06/11 01:16:02;;;;;;;11.60;9.55;;;;;;;;;;4974550;28;20054;-81
2023/06/11 01:18:32;;;;;;;12.35;9.68;;;;;;;;;;4976337;28;20054;-79
2023/06/11 01:21:12;;;;;;;12.70;9.65;;;;;;;;;;4976352;28;20057;-77
2023/06/11 01:23:43;;;;;;;15.25;9.45;;;;;;;;;;4976314;28;20515;-78
2023/06/11 01:26:40;;;;;;;12.40;9.43;;;;;;;;;;4977931;28;20098;-78
2023/06/11 01:29:09;;;;;;;16.85;10.02;;;;;;;;;;4972638;28;20502;-77
2023/06/11 01:31:39;;;;;;;15.93;10.15;;;;;;;;;;4973061;28;20118;-77
2023/06/11 01:34:04;;;;;;;13.48;9.55;;;;;;;;;;4972084;28;20038;-77
2023/06/11 01:36:34;;;;;;;16.23;10.38;;;;;;;;;;4971482;28;20043;-79
2023/06/11 01:39:01;;;;;;;15.07;10.35;;;;;;;;;;4975164;28;20049;-78
2023/06/11 01:41:27;;;;;;;13.25;10.00;;;;;;;;;;4976053;28;20035;-78
2023/06/11 01:43:52;;;;;;;14.57;10.55;;;;;;;;;;4975614;28;20045;-78
2023/06/11 01:46:18;;;;;;;15.50;10.35;;;;;;;;;;4976335;28;20122;-77
2023/06/11 01:48:43;;;;;;;12.90;10.20;;;;;;;;;;4973605;28;20034;-79
2023/06/11 01:51:08;;;;;;;13.18;10.25;;;;;;;;;;4966360;28;20457;-78
2023/06/11 01:53:34;;;;;;;14.23;10.80;;;;;;;;;;4962992;28;20053;-79
2023/06/11 01:56:00;;;;;;;14.95;11.23;;;;;;;;;;4970634;28;20501;-79
2023/06/11 01:58:26;;;;;;;14.25;10.55;;;;;;;;;;4973765;28;20050;-79
2023/06/11 02:00:51;;;;;;;14.32;10.63;;;;;;;;;;4973366;28;20042;-77
2023/06/11 02:03:17;;;;;;;19.27;10.63;;;;;;;;;;4973561;28;20389;-79
2023/06/11 02:05:43;;;;;;;15.65;11.50;;;;;;;;;;4973193;28;20018;-78
2023/06/11 02:08:09;;;;;;;21.70;13.88;;;;;;;;;;4973194;28;20113;-78
2023/06/11 02:10:34;;;;;;;29.73;15.32;;;;;;;;;;4972670;28;20033;-78
2023/06/11 02:12:59;;;;;;;27.23;16.10;;;;;;;;;;4973785;28;20109;-78
2023/06/11 02:15:25;;;;;;;32.70;17.13;;;;;;;;;;4972811;28;20030;-78
2023/06/11 02:17:51;;;;;;;28.88;16.77;;;;;;;;;;4973936;28;20533;-78
2023/06/11 02:20:16;;;;;;;22.15;13.65;;;;;;;;;;4973539;28;20045;-78
2023/06/11 02:22:42;;;;;;;26.40;15.93;;;;;;;;;;4973248;28;20134;-78
2023/06/11 02:25:07;;;;;;;24.58;14.77;;;;;;;;;;4976078;28;20035;-80
2023/06/11 02:27:33;;;;;;;22.35;15.40;;;;;;;;;;4975257;28;20085;-81
2023/06/11 02:29:59;;;;;;;28.33;16.77;;;;;;;;;;4975778;28;20073;-80
2023/06/11 02:32:25;;;;;;;22.73;14.52;;;;;;;;;;4976133;28;20563;-79
2023/06/11 02:34:50;;;;;;;22.80;15.18;;;;;;;;;;4975389;28;20094;-81
2023/06/11 02:37:15;;;;;;;20.00;14.10;;;;;;;;;;4977791;28;20030;-81
2023/06/11 02:39:41;;;;;;;22.75;14.93;;;;;;;;;;4984671;28;20122;-81
2023/06/11 02:42:06;;;;;;;23.35;14.38;;;;;;;;;;4979610;28;20541;-82
2023/06/11 02:44:32;;;;;;;21.50;14.55;;;;;;;;;;4976359;28;20023;-83
2023/06/11 02:46:57;;;;;;;24.40;15.82;;;;;;;;;;4978003;28;20041;-80
2023/06/11 02:49:22;;;;;;;27.25;16.33;;;;;;;;;;4974462;28;20097;-81
2023/06/11 02:51:48;;;;;;;22.15;15.95;;;;;;;;;;4975732;28;20039;-81
2023/06/11 02:54:13;;;;;;;24.80;16.25;;;;;;;;;;4975988;28;20049;-80
2023/06/11 02:56:38;;;;;;;23.17;14.75;;;;;;;;;;4976609;28;20486;-81
2023/06/11 02:59:04;;;;;;;25.30;17.17;;;;;;;;;;4974305;28;20035;-81
2023/06/11 03:01:29;;;;;;;30.92;17.65;;;;;;;;;;4973787;28;20031;-81
2023/06/11 03:03:54;;;;;;;27.00;16.70;;;;;;;;;;4975388;28;20027;-76
2023/06/11 03:06:20;;;;;;;26.00;16.30;;;;;;;;;;4984808;28;20421;-80
2023/06/11 03:08:45;;;;;;;24.15;15.68;;;;;;;;;;4979549;28;20015;-81
2023/06/11 03:11:10;;;;;;;24.27;15.90;;;;;;;;;;4979184;28;20035;-80
2023/06/11 03:13:36;;;;;;;25.90;15.70;;;;;;;;;;4979672;28;20466;-79
2023/06/11 03:16:01;;;;;;;24.13;16.13;;;;;;;;;;4980328;28;20454;-80
2023/06/11 03:18:26;;;;;;;31.25;18.38;;;;;;;;;;4979526;28;20050;-79
2023/06/11 03:20:51;;;;;;;30.88;18.40;;;;;;;;;;4980490;28;20528;-79
2023/06/11 03:23:17;;;;;;;30.90;17.52;;;;;;;;;;4979974;28;20046;-79
2023/06/11 03:25:43;;;;;;;31.52;18.98;;;;;;;;;;4979713;28;20042;-79
2023/06/11 03:28:08;;;;;;;31.50;18.35;;;;;;;;;;4979903;28;20520;-78
2023/06/11 03:30:33;;;;;;;31.25;19.45;;;;;;;;;;4979602;28;20030;-78
2023/06/11 03:32:59;;;;;;;26.67;17.42;;;;;;;;;;4979305;28;20103;-80
2023/06/11 03:35:24;;;;;;;29.17;18.23;;;;;;;;;;4978117;28;20038;-78
2023/06/11 03:37:50;;;;;;;29.40;17.23;;;;;;;;;;4979062;28;20038;-80
2023/06/11 03:40:15;;;;;;;28.15;17.73;;;;;;;;;;4977792;28;20414;-80
2023/06/11 03:42:41;;;;;;;27.60;18.08;;;;;;;;;;4978317;28;20053;-78
2023/06/11 03:45:07;;;;;;;23.85;16.55;;;;;;;;;;4977908;28;20413;-81
2023/06/11 03:47:32;;;;;;;28.10;17.05;;;;;;;;;;4978916;28;20082;-79
2023/06/11 03:49:57;;;;;;;25.95;17.40;;;;;;;;;;4979713;28;20141;-80
2023/06/11 03:52:22;;;;;;;23.13;16.67;;;;;;;;;;4980820;28;20035;-79
2023/06/11 03:54:48;;;;;;;27.60;17.77;;;;;;;;;;4979512;28;20031;-80
2023/06/11 03:57:13;;;;;;;32.88;18.52;;;;;;;;;;4978790;28;20014;-80
2023/06/11 03:59:39;;;;;;;31.05;19.42;;;;;;;;;;4978016;28;20050;-80
2023/06/11 04:02:04;;;;;;;23.38;15.48;;;;;;;;;;4979973;28;20067;-80
2023/06/11 04:04:31;;;;;;;31.25;20.73;;;;;;;;;;4975812;28;20050;-80
2023/06/11 04:06:56;;;;;;;28.48;17.63;;;;;;;;;;4980387;28;20098;-80
2023/06/11 04:09:23;;;;;;;36.58;19.73;;;;;;;;;;4978225;28;20062;-76
2023/06/11 04:11:48;;;;;;;32.47;20.23;;;;;;;;;;4979590;28;20063;-81
2023/06/11 04:14:13;;;;;;;31.52;20.77;;;;;;;;;;4979729;28;20035;-81
2023/06/11 04:16:39;;;;;;;28.55;17.92;;;;;;;;;;4976828;28;20035;-80
2023/06/11 04:19:04;;;;;;;27.73;18.27;;;;;;;;;;4978558;28;20043;-79
2023/06/11 04:21:29;;;;;;;33.42;18.92;;;;;;;;;;4974907;28;20035;-77
2023/06/11 04:23:55;;;;;;;31.85;19.67;;;;;;;;;;4975986;28;20038;-78
2023/06/11 04:26:23;;;;;;;29.20;17.83;;;;;;;;;;4976711;28;20174;-78
2023/06/11 04:28:50;;;;;;;28.83;19.58;;;;;;;;;;4976149;28;20027;-78
2023/06/11 04:31:16;;;;;;;29.08;18.42;;;;;;;;;;4975861;28;20027;-82
2023/06/11 04:33:41;;;;;;;29.58;18.45;;;;;;;;;;4976931;28;20045;-81
2023/06/11 04:36:08;;;;;;;26.23;17.73;;;;;;;;;;4974438;28;20069;-79
2023/06/11 04:38:37;;;;;;;27.40;17.95;;;;;;;;;;4979110;28;20441;-78
2023/06/11 04:41:05;;;;;;;24.80;15.93;;;;;;;;;;4977876;28;20050;-80
2023/06/11 04:43:33;;;;;;;24.65;15.93;;;;;;;;;;4976673;28;20034;-79
2023/06/11 04:46:00;;;;;;;24.08;16.50;;;;;;;;;;4975448;28;20054;-77
2023/06/11 04:48:28;;;;;;;26.42;16.05;;;;;;;;;;4976121;28;20094;-77
2023/06/11 04:50:54;;;;;;;25.55;16.67;;;;;;;;;;4976549;28;20110;-79
2023/06/11 04:53:24;;;;;;;25.23;17.65;;;;;;;;;;4975946;28;20062;-78
2023/06/11 04:55:51;;;;;;;20.60;14.23;;;;;;;;;;4974976;28;20039;-78
2023/06/11 04:58:20;;;;;;;17.70;10.90;;;;;;;;;;4975818;28;20039;-78
2023/06/11 05:00:47;;;;;;;21.75;14.52;;;;;;;;;;4981592;28;20121;-75
2023/06/11 05:03:12;;;;;;;22.58;15.35;;;;;;;;;;4975668;28;20018;-78
2023/06/11 05:05:38;;;;;;;21.48;14.00;;;;;;;;;;4975993;28;20029;-76
2023/06/11 05:08:03;;;;;;;20.65;14.70;;;;;;;;;;4975643;28;20027;-82
2023/06/11 05:10:29;;;;;;;19.02;12.30;;;;;;;;;;4977881;28;20058;-80
2023/06/11 05:12:54;;;;;;;20.13;13.50;;;;;;;;;;4977465;28;20030;-78
2023/06/11 05:15:19;;;;;;;19.98;14.15;;;;;;;;;;4978015;28;20034;-82
2023/06/11 05:17:45;;;;;;;19.25;15.38;;;;;;;;;;4979020;28;20425;-81
2023/06/11 05:20:11;;;;;;;21.70;15.35;;;;;;;;;;4978050;28;20092;-80
2023/06/11 05:22:37;;;;;;;20.73;14.60;;;;;;;;;;4976705;28;20046;-81
2023/06/11 05:25:03;;;;;;;26.38;14.50;;;;;;;;;;4980508;28;20027;-82
2023/06/11 05:27:29;;;;;;;19.85;13.13;;;;;;;;;;4972862;28;20085;-82
2023/06/11 05:29:56;;;;;;;24.35;14.15;;;;;;;;;;4978639;28;20015;-83
2023/06/11 05:32:21;;;;;;;21.05;14.20;;;;;;;;;;4981158;28;20082;-83
2023/06/11 05:34:49;;;;;;;18.25;12.10;;;;;;;;;;4979737;28;20035;-84
2023/06/11 05:37:15;;;;;;;20.15;13.60;;;;;;;;;;4979853;28;20106;-81
2023/06/11 05:39:41;;;;;;;19.60;13.32;;;;;;;;;;4977656;28;20050;-80
2023/06/11 05:42:06;;;;;;;17.10;11.68;;;;;;;;;;4978050;28;20031;-79
2023/06/11 05:44:32;;;;;;;19.52;13.80;;;;;;;;;;4969554;28;20027;-82
2023/06/11 05:46:57;;;;;;;15.77;12.20;;;;;;;;;;4966925;28;20031;-81
2023/06/11 05:49:22;;;;;;;17.98;13.02;;;;;;;;;;4973011;28;20409;-80
2023/06/11 05:51:48;;;;;;;18.30;11.38;;;;;;;;;;4969421;28;20041;-79
2023/06/11 05:54:13;;;;;;;16.55;11.90;;;;;;;;;;4979333;28;20027;-80
2023/06/11 05:56:38;;;;;;;12.82;10.15;;;;;;;;;;4976752;28;20029;-80
2023/06/11 05:59:04;;;;;;;17.85;13.68;;;;;;;;;;4976336;28;20130;-81
2023/06/11 06:01:33;;;;;;;16.98;11.23;;;;;;;;;;4977273;28;20070;-81
2023/06/11 06:04:00;;;;;;;15.90;12.35;;;;;;;;;;4978145;28;20122;-82
2023/06/11 06:06:27;;;;;;;16.95;11.15;;;;;;;;;;4976698;28;20034;-81
2023/06/11 06:08:52;;;;;;;15.43;10.95;;;;;;;;;;4977035;28;20019;-81
2023/06/11 06:11:17;;;;;;;12.55;9.15;;;;;;;;;;4976245;28;20086;-81
2023/06/11 06:13:43;;;;;;;14.95;9.68;;;;;;;;;;5008135;23;20050;-80
2023/06/11 06:16:08;;;;;;;11.95;9.25;;;;;;;;;;4990743;28;20460;-77
2023/06/11 06:18:34;;;;;;;9.85;8.27;;;;;;;;;;4991838;28;20035;-77
2023/06/11 06:21:00;;;;;;;9.80;8.00;;;;;;;;;;4992466;28;20054;-78
2023/06/11 06:23:25;;;;;;;11.25;8.57;;;;;;;;;;4980642;28;20417;-77
2023/06/11 06:25:51;;;;;;;12.52;9.45;;;;;;;;;;4992778;28;20066;-79
2023/06/11 06:28:17;;;;;;;10.80;8.52;;;;;;;;;;4992569;28;20451;-78
2023/06/11 06:30:42;;;;;;;8.18;6.45;;;;;;;;;;4991450;28;20396;-78
2023/06/11 06:33:08;;;;;;;13.30;11.90;;;;;;;;;;5007112;28;20121;-78
2023/06/11 06:35:33;;;;;;;10.70;9.60;;;;;;;;;;4992438;28;20464;-77
2023/06/11 06:38:00;;;;;;;12.18;10.80;;;;;;;;;;4986611;28;20062;-77
2023/06/11 06:40:25;;;;;;;10.85;7.55;;;;;;;;;;4982794;28;20046;-77
2023/06/11 06:42:51;;;;;;;15.20;9.23;;;;;;;;;;4988478;28;20259;-78
2023/06/11 06:45:16;;;;;;;9.55;7.75;;;;;;;;;;4989260;28;20023;-78
2023/06/11 06:47:41;;;;;;;10.48;8.35;;;;;;;;;;4988038;28;20044;-79
2023/06/11 06:50:07;;;;;;;9.48;7.97;;;;;;;;;;4981164;28;20034;-79
2023/06/11 06:52:32;;;;;;;12.35;5.93;;;;;;;;;;5004810;28;20461;-78
2023/06/11 06:54:58;;;;;;;6.60;5.90;;;;;;;;;;4990587;28;20504;-78
2023/06/11 06:57:23;;;;;;;8.27;6.18;;;;;;;;;;4991448;28;20034;-78
2023/06/11 06:59:48;;;;;;;6.13;5.53;;;;;;;;;;4988092;28;20035;-78
2023/06/11 07:02:14;;;;;;;12.00;6.80;;;;;;;;;;4988019;28;20035;-78
2023/06/11 07:04:41;;;;;;;7.05;6.35;;;;;;;;;;4994552;28;20046;-78
2023/06/11 07:07:06;;;;;;;6.05;5.47;;;;;;;;;;4990190;28;20038;-78
2023/06/11 07:09:32;;;;;;;9.32;6.70;;;;;;;;;;4991085;28;20038;-78
2023/06/11 07:11:57;;;;;;;9.68;7.95;;;;;;;;;;4991328;28;20054;-79
2023/06/11 07:14:22;;;;;;;7.75;5.95;;;;;;;;;;5001047;28;20121;-78
2023/06/11 07:16:48;;;;;;;9.23;5.82;;;;;;;;;;5017824;28;20026;-79
2023/06/11 07:19:20;;;;;;;9.63;5.60;;;;;;;;;;5006389;28;20050;-78
2023/06/11 07:21:46;;;;;;;6.65;5.80;;;;;;;;;;5022435;28;20042;-79
2023/06/11 07:24:11;;;;;;;7.57;6.50;;;;;;;;;;5015294;28;20057;-80
2023/06/11 07:26:36;;;;;;;7.25;6.38;;;;;;;;;;5012467;28;20049;-80
2023/06/11 07:29:02;;;;;;;7.68;6.10;;;;;;;;;;4999914;28;20038;-79
2023/06/11 07:31:28;;;;;;;8.18;5.75;;;;;;;;;;4993324;28;20035;-79
2023/06/11 07:33:53;;;;;;;7.43;5.55;;;;;;;;;;5005831;28;20033;-79
2023/06/11 07:36:19;;;;;;;6.90;5.68;;;;;;;;;;5002614;28;20022;-78
2023/06/11 07:38:48;;;;;;;7.78;6.13;;;;;;;;;;5014455;28;20054;-79
2023/06/11 07:41:17;;;;;;;6.20;5.60;;;;;;;;;;5015080;28;20064;-80
2023/06/11 07:43:42;;;;;;;6.85;5.80;;;;;;;;;;4989395;28;20049;-79
2023/06/11 07:46:07;;;;;;;6.45;5.78;;;;;;;;;;5005760;28;20039;-78
2023/06/11 07:48:41;;;;;;;9.10;5.57;;;;;;;;;;4988459;28;20050;-79
2023/06/11 07:51:06;;;;;;;6.43;5.83;;;;;;;;;;4991598;28;20022;-80
2023/06/11 07:53:37;;;;;;;10.40;6.28;;;;;;;;;;4998785;28;20113;-80
2023/06/11 07:56:05;;;;;;;6.32;5.35;;;;;;;;;;4996267;28;20039;-79
2023/06/11 07:58:30;;;;;;;7.10;5.40;;;;;;;;;;4993842;28;20038;-80
2023/06/11 08:00:56;;;;;;;6.28;5.65;;;;;;;;;;4995835;28;20042;-78
2023/06/11 08:03:22;;;;;;;9.48;5.80;;;;;;;;;;4991192;28;20485;-78
2023/06/11 08:05:47;;;;;;;6.93;5.35;;;;;;;;;;4990461;28;20525;-79
2023/06/11 08:08:12;;;;;;;6.22;5.63;;;;;;;;;;4984213;28;20034;-80
2023/06/11 08:10:37;;;;;;;6.07;5.47;;;;;;;;;;4989795;28;20066;-78
2023/06/11 08:13:03;;;;;;;6.95;5.78;;;;;;;;;;4991548;28;20038;-79
2023/06/11 08:15:34;;;;;;;6.97;5.53;;;;;;;;;;4985205;28;20043;-78
2023/06/11 08:17:59;;;;;;;6.65;4.70;;;;;;;;;;4991466;28;20157;-79
2023/06/11 08:20:31;;;;;;;5.95;4.85;;;;;;;;;;4982427;28;20030;-78
2023/06/11 08:22:56;;;;;;;6.75;5.32;;;;;;;;;;4995120;28;20042;-80
2023/06/11 08:25:22;;;;;;;6.88;5.93;;;;;;;;;;4986514;28;20519;-79
2023/06/11 08:27:47;;;;;;;5.93;4.88;;;;;;;;;;4994841;28;20090;-80
2023/06/11 08:30:13;;;;;;;6.35;5.70;;;;;;;;;;4985020;28;20022;-79
2023/06/11 08:32:38;;;;;;;7.90;5.25;;;;;;;;;;4993426;28;20484;-78
2023/06/11 08:35:04;;;;;;;6.75;5.78;;;;;;;;;;4995170;28;20122;-78
2023/06/11 08:37:30;;;;;;;5.53;4.90;;;;;;;;;;4994191;28;20461;-77
2023/06/11 08:40:03;;;;;;;6.00;5.07;;;;;;;;;;4986509;28;20045;-79
2023/06/11 08:42:29;;;;;;;10.80;5.63;;;;;;;;;;4990657;28;20054;-79
2023/06/11 08:44:54;;;;;;;6.80;5.00;;;;;;;;;;5000746;28;20019;-80
2023/06/11 08:47:25;;;;;;;6.40;5.03;;;;;;;;;;5014011;28;20103;-79
2023/06/11 08:49:53;;;;;;;6.85;5.13;;;;;;;;;;4992502;28;20035;-78
2023/06/11 08:52:21;;;;;;;8.32;5.18;;;;;;;;;;5013728;28;20039;-78
2023/06/11 08:54:46;;;;;;;9.40;5.50;;;;;;;;;;4992749;28;20054;-78
2023/06/11 08:57:15;;;;;;;7.32;5.22;;;;;;;;;;4994959;28;20030;-78
2023/06/11 08:59:43;;;;;;;13.88;5.60;;;;;;;;;;5001069;28;20026;-78
2023/06/11 09:02:09;;;;;;;6.60;5.05;;;;;;;;;;5008814;28;20045;-80
2023/06/11 09:04:34;;;;;;;6.72;5.22;;;;;;;;;;5008293;28;20030;-79
2023/06/11 09:07:03;;;;;;;6.13;5.00;;;;;;;;;;4997557;28;20109;-79
2023/06/11 09:09:29;;;;;;;7.88;5.47;;;;;;;;;;4984844;28;20046;-79
2023/06/11 09:11:55;;;;;;;10.93;5.78;;;;;;;;;;5008698;28;20093;-80
2023/06/11 09:14:21;;;;;;;6.22;4.22;;;;;;;;;;4989817;28;20461;-80
2023/06/11 09:16:48;;;;;;;5.07;4.53;;;;;;;;;;4999008;28;20081;-78
2023/06/11 09:19:15;;;;;;;4.72;4.22;;;;;;;;;;4987292;28;20074;-80
2023/06/11 09:21:52;;;;;;;5.85;4.30;;;;;;;;;;4989987;28;20436;-80
2023/06/11 09:24:19;;;;;;;5.40;4.97;;;;;;;;;;4992131;28;20034;-79
2023/06/11 09:26:51;;;;;;;5.38;4.53;;;;;;;;;;4988963;28;20041;-79
2023/06/11 09:29:17;;;;;;;6.43;4.70;;;;;;;;;;4990640;28;20031;-79
2023/06/11 09:31:43;;;;;;;5.60;4.90;;;;;;;;;;5004429;28;20039;-78
2023/06/11 09:34:12;;;;;;;5.05;4.55;;;;;;;;;;4995793;28;20118;-79
2023/06/11 09:36:37;;;;;;;5.50;5.00;;;;;;;;;;4989179;28;20089;-79
2023/06/11 09:39:03;;;;;;;7.85;4.20;;;;;;;;;;4975036;28;20035;-78
2023/06/11 09:41:30;;;;;;;5.88;4.22;;;;;;;;;;4992106;28;20045;-78
2023/06/11 09:43:56;;;;;;;8.95;6.00;;;;;;;;;;4994055;28;20034;-79
2023/06/11 09:46:23;;;;;;;7.07;4.70;;;;;;;;;;4994472;28;20048;-80
2023/06/11 09:48:48;;;;;;;6.00;4.40;;;;;;;;;;4983957;28;20030;-79
2023/06/11 09:51:15;;;;;;;6.10;4.93;;;;;;;;;;4983172;28;20035;-79
2023/06/11 09:53:43;;;;;;;7.85;4.50;;;;;;;;;;4986609;28;20053;-79
2023/06/11 09:56:08;;;;;;;5.65;4.82;;;;;;;;;;4988526;28;20038;-80
2023/06/11 09:58:33;;;;;;;8.43;4.47;;;;;;;;;;4985170;28;20393;-79
2023/06/11 10:01:00;;;;;;;7.35;4.97;;;;;;;;;;4986783;28;20500;-79
2023/06/11 10:03:26;;;;;;;5.78;4.07;;;;;;;;;;4983880;28;20039;-80
2023/06/11 10:05:52;;;;;;;5.00;4.40;;;;;;;;;;4991842;28;20029;-80
2023/06/11 10:08:22;;;;;;;8.38;4.65;;;;;;;;;;4979259;28;20042;-79
2023/06/11 10:10:55;;;;;;;5.18;4.65;;;;;;;;;;4988644;28;20031;-80
2023/06/11 10:13:32;;;;;;;7.30;4.22;;;;;;;;;;4980508;28;20142;-79
2023/06/11 10:16:02;;;;;;;5.65;4.47;;;;;;;;;;4984347;28;20037;-79
2023/06/11 10:18:29;;;;;;;4.45;3.75;;;;;;;;;;4981967;28;20548;-80
2023/06/11 10:20:58;;;;;;;4.95;3.67;;;;;;;;;;4993772;28;20026;-79
2023/06/11 10:23:39;;;;;;;5.03;4.00;;;;;;;;;;4978078;28;20031;-79
2023/06/11 10:26:05;;;;;;;6.10;4.32;;;;;;;;;;4987891;28;20501;-80
2023/06/11 10:28:40;;;;;;;5.15;4.38;;;;;;;;;;4998349;28;20065;-80
2023/06/11 10:31:06;;;;;;;5.25;4.53;;;;;;;;;;4991033;28;20046;-79
2023/06/11 10:33:49;;;;;;;9.02;4.88;;;;;;;;;;5006404;28;20065;-80
2023/06/11 10:36:25;;;;;;;9.20;4.60;;;;;;;;;;4985635;28;20046;-79
2023/06/11 10:39:04;;;;;;;4.40;4.00;;;;;;;;;;4991585;28;20026;-79
2023/06/11 10:41:29;;;;;;;5.07;4.38;;;;;;;;;;4987821;28;20042;-79
2023/06/11 10:43:56;;;;;;;5.75;4.20;;;;;;;;;;4994557;28;20026;-79
2023/06/11 10:46:22;;;;;;;5.95;3.97;;;;;;;;;;4993883;28;20109;-80
2023/06/11 10:48:51;;;;;;;9.00;4.63;;;;;;;;;;5016461;28;20404;-80
2023/06/11 10:51:17;;;;;;;4.20;3.80;;;;;;;;;;4994411;28;20022;-80
2023/06/11 10:53:42;;;;;;;6.70;4.18;;;;;;;;;;4992633;28;20431;-79
2023/06/11 10:56:09;;;;;;;4.82;3.55;;;;;;;;;;5009416;28;20088;-79
2023/06/11 10:58:35;;;;;;;5.30;3.63;;;;;;;;;;4975131;28;20398;-79
2023/06/11 11:01:01;;;;;;;4.40;4.00;;;;;;;;;;4990398;28;20041;-79
2023/06/11 11:03:30;;;;;;;6.38;3.58;;;;;;;;;;4995722;28;20042;-78
2023/06/11 11:05:55;;;;;;;5.70;3.83;;;;;;;;;;4997886;28;20050;-80
2023/06/11 11:08:21;;;;;;;4.70;3.72;;;;;;;;;;5023337;28;20041;-79
2023/06/11 11:10:55;;;;;;;6.07;3.75;;;;;;;;;;5008908;28;20035;-80
2023/06/11 11:13:20;;;;;;;5.30;3.63;;;;;;;;;;4990391;28;20041;-79
2023/06/11 11:15:46;;;;;;;4.53;3.75;;;;;;;;;;4998654;28;20117;-79
2023/06/11 11:18:12;;;;;;;6.35;3.88;;;;;;;;;;4997315;28;20030;-79
2023/06/11 11:20:37;;;;;;;4.40;3.90;;;;;;;;;;5002932;28;20022;-78
2023/06/11 11:23:05;;;;;;;4.03;3.63;;;;;;;;;;5013109;28;20125;-80
2023/06/11 11:25:32;;;;;;;4.63;3.60;;;;;;;;;;4993373;28;20510;-80
2023/06/11 11:27:58;;;;;;;4.30;3.90;;;;;;;;;;5012201;28;20105;-79
2023/06/11 11:30:28;;;;;;;5.15;3.80;;;;;;;;;;4997970;28;20069;-79
2023/06/11 11:32:54;;;;;;;6.45;3.72;;;;;;;;;;4998769;28;20148;-79
2023/06/11 11:35:21;;;;;;;4.78;3.72;;;;;;;;;;5014658;28;20034;-79
2023/06/11 11:37:48;;;;;;;6.30;3.88;;;;;;;;;;4998077;28;20049;-79
2023/06/11 11:40:19;;;;;;;11.20;3.90;;;;;;;;;;4999537;28;20125;-79
2023/06/11 11:43:05;;;;;;;5.15;4.60;;;;;;;;;;5004856;28;20065;-79
2023/06/11 11:45:32;;;;;;;4.03;3.47;;;;;;;;;;4999701;28;20038;-78
2023/06/11 11:47:59;;;;;;;6.22;4.43;;;;;;;;;;4998534;28;20030;-78
2023/06/11 11:50:27;;;;;;;3.70;3.40;;;;;;;;;;5014077;28;20035;-78
2023/06/11 11:53:08;;;;;;;4.75;3.50;;;;;;;;;;4992379;28;20038;-78
2023/06/11 11:55:38;;;;;;;4.70;3.38;;;;;;;;;;4993904;28;20045;-79
2023/06/11 11:58:04;;;;;;;4.50;3.60;;;;;;;;;;5006530;28;20408;-79
2023/06/11 12:00:30;;;;;;;4.35;3.95;;;;;;;;;;4998942;28;20114;-79
2023/06/11 12:02:56;;;;;;;4.45;3.70;;;;;;;;;;5011026;28;20026;-78
2023/06/11 12:05:28;;;;;;;3.97;3.58;;;;;;;;;;4993234;28;20101;-80
2023/06/11 12:07:53;;;;;;;3.67;3.38;;;;;;;;;;5003828;28;20038;-79
2023/06/11 12:10:19;;;;;;;5.53;3.60;;;;;;;;;;4988761;28;20035;-79
2023/06/11 12:12:44;;;;;;;4.45;3.97;;;;;;;;;;4993940;28;20038;-79
2023/06/11 12:15:10;;;;;;;5.57;3.10;;;;;;;;;;5008654;28;20026;-79
2023/06/11 12:17:38;;;;;;;3.53;3.22;;;;;;;;;;4999784;28;20488;-78
2023/06/11 12:20:04;;;;;;;4.93;3.40;;;;;;;;;;4993151;28;20031;-77
2023/06/11 12:22:30;;;;;;;6.10;3.70;;;;;;;;;;4997318;28;20038;-78
2023/06/11 12:24:59;;;;;;;4.65;3.42;;;;;;;;;;4992145;28;20042;-78
2023/06/11 12:27:26;;;;;;;5.10;3.80;;;;;;;;;;5011350;28;20050;-78
2023/06/11 12:29:53;;;;;;;4.20;3.28;;;;;;;;;;4999021;28;20052;-79
2023/06/11 12:32:22;;;;;;;3.80;3.50;;;;;;;;;;5015124;28;20030;-79
2023/06/11 12:34:49;;;;;;;5.22;3.42;;;;;;;;;;5002037;28;20100;-79
2023/06/11 12:37:16;;;;;;;3.85;3.30;;;;;;;;;;4987510;28;20030;-79
2023/06/11 12:39:43;;;;;;;4.22;2.92;;;;;;;;;;4983920;28;20042;-79
2023/06/11 12:42:15;;;;;;;5.47;3.28;;;;;;;;;;4991579;28;20018;-79
2023/06/11 12:44:45;;;;;;;3.42;3.13;;;;;;;;;;4992180;28;20026;-80
2023/06/11 12:47:11;;;;;;;5.38;3.55;;;;;;;;;;4994698;28;20070;-79
2023/06/11 12:49:37;;;;;;;3.72;3.35;;;;;;;;;;4989441;28;20031;-78
2023/06/11 12:52:02;;;;;;;4.45;3.50;;;;;;;;;;4996357;28;20097;-78
2023/06/11 12:54:28;;;;;;;7.10;3.15;;;;;;;;;;4997613;28;20093;-79
2023/06/11 12:56:53;;;;;;;3.85;2.97;;;;;;;;;;5024887;23;20043;-74
2023/06/11 12:59:20;;;;;;;3.53;3.22;;;;;;;;;;4993440;28;20031;-74
2023/06/11 13:01:46;;;;;;;3.63;3.33;;;;;;;;;;4993427;28;20073;-75
2023/06/11 13:04:11;;;;;;;3.53;3.22;;;;;;;;;;4993243;28;20066;-74
2023/06/11 13:06:36;;;;;;;3.95;3.10;;;;;;;;;;4993397;28;20054;-74
2023/06/11 13:09:02;;;;;;;4.28;3.60;;;;;;;;;;4993722;28;20022;-74
2023/06/11 13:11:27;;;;;;;5.50;3.10;;;;;;;;;;4993284;28;20046;-75
2023/06/11 13:13:53;;;;;;;3.92;3.58;;;;;;;;;;4993161;28;20527;-75
2023/06/11 13:16:19;;;;;;;4.57;3.55;;;;;;;;;;4993156;28;20030;-75
2023/06/11 13:18:45;;;;;;;3.65;2.90;;;;;;;;;;4992896;28;20031;-74
2023/06/11 13:21:11;;;;;;;3.38;3.03;;;;;;;;;;4992909;28;20030;-75
2023/06/11 13:23:36;;;;;;;4.40;3.22;;;;;;;;;;4993331;28;20049;-75
2023/06/11 13:26:02;;;;;;;3.40;3.08;;;;;;;;;;4992985;28;20058;-75
2023/06/11 13:28:28;;;;;;;3.25;3.00;;;;;;;;;;4993025;28;20031;-74
2023/06/11 13:30:55;;;;;;;3.90;3.50;;;;;;;;;;4992824;28;20113;-75
2023/06/11 13:33:21;;;;;;;3.58;2.90;;;;;;;;;;4992838;28;20081;-74
2023/06/11 13:35:46;;;;;;;4.63;3.55;;;;;;;;;;4993250;28;20433;-74
2023/06/11 13:38:12;;;;;;;3.67;3.38;;;;;;;;;;4992780;28;20062;-74
2023/06/11 13:40:38;;;;;;;3.15;2.67;;;;;;;;;;4992748;28;20097;-74
2023/06/11 13:43:03;;;;;;;3.58;3.20;;;;;;;;;;4993280;28;20089;-74
2023/06/11 13:45:28;;;;;;;3.33;2.90;;;;;;;;;;4992678;28;20034;-74
2023/06/11 13:47:55;;;;;;;3.83;3.40;;;;;;;;;;4992919;28;20022;-74
2023/06/11 13:50:20;;;;;;;3.33;2.90;;;;;;;;;;4991712;28;20034;-75
2023/06/11 13:52:46;;;;;;;3.10;2.90;;;;;;;;;;4992569;28;20085;-74
2023/06/11 13:55:12;;;;;;;6.47;3.05;;;;;;;;;;4992651;28;20070;-75
2023/06/11 13:57:37;;;;;;;4.82;3.22;;;;;;;;;;4992091;28;20038;-74
2023/06/11 14:00:04;;;;;;;3.50;2.88;;;;;;;;;;4992418;28;20030;-75
2023/06/11 14:02:29;;;;;;;4.10;2.78;;;;;;;;;;4992952;28;20104;-74
2023/06/11 14:04:54;;;;;;;4.97;2.95;;;;;;;;;;4992336;28;20066;-74
2023/06/11 14:07:20;;;;;;;3.30;3.00;;;;;;;;;;4992398;28;20069;-74
2023/06/11 14:09:46;;;;;;;2.83;2.55;;;;;;;;;;4992698;28;20038;-75
2023/06/11 14:12:12;;;;;;;4.72;3.15;;;;;;;;;;4992270;28;20031;-74
2023/06/11 14:14:37;;;;;;;3.22;2.92;;;;;;;;;;4992669;28;20392;-75
2023/06/11 14:17:04;;;;;;;2.63;2.42;;;;;;;;;;4992121;28;20040;-74
2023/06/11 14:19:30;;;;;;;2.60;2.40;;;;;;;;;;4992108;28;20030;-74
2023/06/11 14:21:57;;;;;;;2.83;2.63;;;;;;;;;;4992208;28;20042;-74
2023/06/11 14:24:23;;;;;;;3.20;2.90;;;;;;;;;;4992109;28;20053;-74
2023/06/11 14:26:49;;;;;;;3.08;2.80;;;;;;;;;;4992564;28;20041;-74
2023/06/11 14:29:14;;;;;;;4.63;2.90;;;;;;;;;;4992141;28;20027;-74
2023/06/11 14:31:39;;;;;;;3.15;2.50;;;;;;;;;;4992166;28;20038;-74